Time;durP1;ratioP1;P1;durP2;ratioP2;P2;SDS_P1;SDS_P2;PMS_P1;PMS_P2;Temp;Humidity;BMP_temperature;BMP_pressure;BME280_temperature;BME280_humidity;BME280_pressure;Samples;Min_cycle;Max_cycle;Signal;HPM_P1;HPM_P2
2024/01/14 00:00:34;;;;;;;188.77;64.43;;;;;;;;;;5032926;28;20124;-49
2024/01/14 00:03:00;;;;;;;198.00;60.22;;;;;;;;;;5015050;28;20043;-49
2024/01/14 00:05:26;;;;;;;267.00;70.10;;;;;;;;;;5014879;28;20480;-49
2024/01/14 00:07:53;;;;;;;211.67;69.20;;;;;;;;;;5014780;28;20045;-49
2024/01/14 00:10:20;;;;;;;224.30;61.03;;;;;;;;;;5038257;28;20028;-49
2024/01/14 00:12:46;;;;;;;317.85;80.20;;;;;;;;;;5052320;28;20036;-49
2024/01/14 00:15:12;;;;;;;221.03;65.10;;;;;;;;;;5031263;28;20108;-49
2024/01/14 00:17:38;;;;;;;262.05;68.97;;;;;;;;;;5022995;28;20071;-49
2024/01/14 00:20:05;;;;;;;476.27;87.57;;;;;;;;;;5039987;28;20079;-47
2024/01/14 00:22:31;;;;;;;588.95;102.22;;;;;;;;;;5044479;28;20033;-48
2024/01/14 00:24:57;;;;;;;318.03;72.43;;;;;;;;;;5034589;28;20029;-48
2024/01/14 00:27:23;;;;;;;230.63;62.05;;;;;;;;;;5041416;28;20021;-49
2024/01/14 00:29:50;;;;;;;227.20;65.40;;;;;;;;;;5021990;28;20021;-49
2024/01/14 00:32:16;;;;;;;348.83;86.15;;;;;;;;;;5046219;28;20112;-49
2024/01/14 00:34:42;;;;;;;263.57;71.80;;;;;;;;;;5038703;28;20055;-48
2024/01/14 00:37:08;;;;;;;266.50;80.77;;;;;;;;;;5032857;28;20108;-48
2024/01/14 00:39:38;;;;;;;256.50;79.30;;;;;;;;;;5031609;28;20017;-49
2024/01/14 00:42:05;;;;;;;147.88;60.10;;;;;;;;;;5031762;28;20026;-49
2024/01/14 00:44:31;;;;;;;253.70;70.32;;;;;;;;;;5031581;28;20032;-49
2024/01/14 00:46:57;;;;;;;284.50;82.63;;;;;;;;;;5031345;28;20025;-49
2024/01/14 00:49:24;;;;;;;231.10;76.67;;;;;;;;;;5031980;28;20029;-49
2024/01/14 00:51:50;;;;;;;162.48;65.05;;;;;;;;;;5031471;28;20446;-49
2024/01/14 00:54:16;;;;;;;147.97;60.80;;;;;;;;;;5031470;28;20483;-49
2024/01/14 00:56:43;;;;;;;148.85;58.55;;;;;;;;;;5031502;28;20272;-48
2024/01/14 00:59:10;;;;;;;193.48;61.88;;;;;;;;;;5031521;28;20545;-49
2024/01/14 01:01:36;;;;;;;165.05;59.35;;;;;;;;;;5031394;28;20487;-49
2024/01/14 01:04:02;;;;;;;134.23;57.93;;;;;;;;;;5031429;28;20029;-49
2024/01/14 01:06:29;;;;;;;134.73;59.40;;;;;;;;;;5031587;28;20037;-48
2024/01/14 01:08:55;;;;;;;139.07;56.07;;;;;;;;;;5031106;28;20275;-48
2024/01/14 01:11:21;;;;;;;109.27;53.83;;;;;;;;;;5031506;28;20064;-49
2024/01/14 01:13:47;;;;;;;165.10;67.25;;;;;;;;;;5029906;28;20396;-50
2024/01/14 01:16:14;;;;;;;208.27;63.75;;;;;;;;;;5029907;28;20032;-49
2024/01/14 01:18:40;;;;;;;172.30;56.93;;;;;;;;;;5031334;28;20063;-47
2024/01/14 01:21:06;;;;;;;156.07;56.10;;;;;;;;;;5031501;28;20108;-49
2024/01/14 01:23:32;;;;;;;235.20;70.57;;;;;;;;;;5030896;28;20032;-49
2024/01/14 01:25:58;;;;;;;144.10;53.77;;;;;;;;;;5031277;28;20035;-48
2024/01/14 01:28:25;;;;;;;234.57;69.70;;;;;;;;;;5031104;28;20041;-48
2024/01/14 01:30:51;;;;;;;230.83;70.73;;;;;;;;;;5031024;28;20129;-49
2024/01/14 01:33:17;;;;;;;264.75;75.50;;;;;;;;;;5031118;28;20022;-51
2024/01/14 01:35:43;;;;;;;165.25;54.35;;;;;;;;;;5031172;28;20028;-51
2024/01/14 01:38:09;;;;;;;106.60;50.33;;;;;;;;;;5040508;28;20033;-50
2024/01/14 01:40:36;;;;;;;161.70;58.05;;;;;;;;;;5032701;28;20037;-52
2024/01/14 01:43:02;;;;;;;151.55;57.97;;;;;;;;;;5049050;28;20040;-54
2024/01/14 01:45:28;;;;;;;190.17;61.47;;;;;;;;;;5047319;28;20331;-49
2024/01/14 01:47:54;;;;;;;318.58;79.93;;;;;;;;;;5013445;28;20272;-48
2024/01/14 01:50:20;;;;;;;255.90;68.17;;;;;;;;;;5034038;28;20025;-52
2024/01/14 01:52:47;;;;;;;276.10;71.87;;;;;;;;;;5050822;28;20376;-48
2024/01/14 01:55:13;;;;;;;225.38;61.25;;;;;;;;;;5053006;28;20032;-51
2024/01/14 01:57:40;;;;;;;265.42;65.95;;;;;;;;;;5053729;28;20052;-50
2024/01/14 02:00:11;;;;;;;273.93;62.03;;;;;;;;;;5035074;28;20033;-53
2024/01/14 02:02:44;;;;;;;393.20;68.82;;;;;;;;;;5035930;28;20102;-53
2024/01/14 02:05:10;;;;;;;227.50;56.92;;;;;;;;;;5039668;28;20041;-52
2024/01/14 02:07:37;;;;;;;288.80;62.97;;;;;;;;;;5046927;28;20484;-51
2024/01/14 02:10:03;;;;;;;287.70;69.22;;;;;;;;;;5035983;28;20113;-53
2024/01/14 02:12:29;;;;;;;243.57;62.33;;;;;;;;;;5038979;28;20025;-54
2024/01/14 02:14:55;;;;;;;397.90;77.07;;;;;;;;;;5054121;28;20114;-50
2024/01/14 02:17:22;;;;;;;229.63;58.00;;;;;;;;;;5049436;28;20021;-49
2024/01/14 02:19:48;;;;;;;225.75;61.95;;;;;;;;;;5054109;28;20029;-48
2024/01/14 02:22:15;;;;;;;349.10;84.97;;;;;;;;;;5028831;28;20116;-50
2024/01/14 02:24:41;;;;;;;165.55;46.92;;;;;;;;;;5032035;28;20263;-51
2024/01/14 02:27:07;;;;;;;245.93;62.20;;;;;;;;;;5052347;28;20032;-51
2024/01/14 02:29:34;;;;;;;178.80;50.35;;;;;;;;;;5034430;28;20021;-53
2024/01/14 02:32:00;;;;;;;;;;;;;;;;;;5034971;28;20037;-53
2024/01/14 02:34:26;;;;;;;212.40;51.25;;;;;;;;;;5034318;28;19905;-51
2024/01/14 02:36:53;;;;;;;138.50;48.20;;;;;;;;;;5034322;28;20033;-53
2024/01/14 02:39:19;;;;;;;140.90;48.25;;;;;;;;;;5033150;28;20366;-50
2024/01/14 02:41:45;;;;;;;207.10;54.23;;;;;;;;;;5034322;28;20031;-50
2024/01/14 02:44:11;;;;;;;168.83;52.30;;;;;;;;;;5034041;28;20038;-49
2024/01/14 02:46:38;;;;;;;290.65;67.20;;;;;;;;;;5034309;28;20049;-51
2024/01/14 02:49:04;;;;;;;153.07;50.67;;;;;;;;;;5033785;28;20036;-53
2024/01/14 02:51:30;;;;;;;210.00;54.10;;;;;;;;;;5033893;28;20034;-51
2024/01/14 02:53:57;;;;;;;147.90;51.13;;;;;;;;;;5033906;28;20022;-51
2024/01/14 02:56:23;;;;;;;201.97;50.67;;;;;;;;;;5034194;28;20021;-48
2024/01/14 02:58:49;;;;;;;323.38;68.38;;;;;;;;;;5032753;28;20041;-50
2024/01/14 03:01:15;;;;;;;200.88;55.97;;;;;;;;;;5033272;28;20048;-48
2024/01/14 03:03:42;;;;;;;135.20;48.75;;;;;;;;;;5033843;28;20029;-48
2024/01/14 03:06:08;;;;;;;157.75;51.60;;;;;;;;;;5033531;28;20029;-49
2024/01/14 03:08:34;;;;;;;126.77;51.43;;;;;;;;;;5032055;28;20402;-49
2024/01/14 03:11:00;;;;;;;114.95;48.53;;;;;;;;;;5033338;28;20747;-50
2024/01/14 03:13:27;;;;;;;232.10;61.83;;;;;;;;;;5033394;28;20033;-50
2024/01/14 03:15:54;;;;;;;274.35;68.57;;;;;;;;;;5033485;28;20614;-49
2024/01/14 03:18:20;;;;;;;281.20;71.67;;;;;;;;;;5032241;28;20519;-48
2024/01/14 03:20:47;;;;;;;207.03;59.00;;;;;;;;;;5033212;28;20082;-51
2024/01/14 03:23:13;;;;;;;231.85;64.85;;;;;;;;;;5033649;28;20280;-49
2024/01/14 03:25:39;;;;;;;186.27;58.07;;;;;;;;;;5032703;28;20026;-49
2024/01/14 03:28:05;;;;;;;181.50;56.20;;;;;;;;;;5032046;28;20343;-50
2024/01/14 03:30:31;;;;;;;150.53;57.07;;;;;;;;;;5032960;28;20022;-49
2024/01/14 03:32:58;;;;;;;218.30;62.27;;;;;;;;;;5033427;28;20112;-50
2024/01/14 03:35:24;;;;;;;239.57;63.47;;;;;;;;;;5031474;28;20034;-51
2024/01/14 03:37:50;;;;;;;280.45;69.43;;;;;;;;;;5040074;28;20132;-49
2024/01/14 03:40:18;;;;;;;176.20;54.63;;;;;;;;;;5038970;28;20029;-49
2024/01/14 03:42:44;;;;;;;140.80;53.33;;;;;;;;;;5051358;28;20511;-48
2024/01/14 03:45:10;;;;;;;130.87;50.70;;;;;;;;;;5051624;28;20029;-48
2024/01/14 03:47:36;;;;;;;158.23;54.23;;;;;;;;;;5007146;28;20086;-48
2024/01/14 03:50:03;;;;;;;205.00;62.33;;;;;;;;;;5026814;28;20034;-48
2024/01/14 03:52:29;;;;;;;386.00;82.60;;;;;;;;;;5048059;28;20033;-50
2024/01/14 03:54:55;;;;;;;239.93;60.40;;;;;;;;;;5051488;28;20017;-52
2024/01/14 03:57:21;;;;;;;159.83;50.87;;;;;;;;;;5049503;28;20040;-49
2024/01/14 03:59:47;;;;;;;245.43;63.10;;;;;;;;;;5034928;28;20017;-51
2024/01/14 04:02:14;;;;;;;170.13;52.90;;;;;;;;;;5050856;28;20048;-52
2024/01/14 04:04:40;;;;;;;369.43;78.97;;;;;;;;;;5034580;28;20049;-49
2024/01/14 04:07:06;;;;;;;276.88;67.75;;;;;;;;;;5048390;28;20041;-49
2024/01/14 04:09:32;;;;;;;199.57;54.43;;;;;;;;;;5034891;28;20022;-53
2024/01/14 04:11:59;;;;;;;195.10;57.47;;;;;;;;;;5048397;28;20329;-48
2024/01/14 04:14:25;;;;;;;252.80;68.33;;;;;;;;;;5052266;28;20017;-47
2024/01/14 04:16:51;;;;;;;203.65;54.33;;;;;;;;;;5026201;28;20495;-49
2024/01/14 04:19:17;;;;;;;215.68;59.38;;;;;;;;;;5034433;28;20421;-49
2024/01/14 04:21:43;;;;;;;213.27;54.43;;;;;;;;;;5052580;28;20029;-49
2024/01/14 04:24:09;;;;;;;249.50;54.00;;;;;;;;;;5042428;28;20033;-49
2024/01/14 04:26:35;;;;;;;354.07;69.63;;;;;;;;;;5050438;28;20024;-49
2024/01/14 04:29:02;;;;;;;152.98;53.53;;;;;;;;;;5050534;28;20029;-49
2024/01/14 04:31:28;;;;;;;221.43;62.65;;;;;;;;;;5045484;28;20033;-48
2024/01/14 04:33:56;;;;;;;340.57;75.17;;;;;;;;;;5036467;28;20027;-49
2024/01/14 04:36:22;;;;;;;291.45;70.63;;;;;;;;;;5034019;28;20029;-50
2024/01/14 04:38:48;;;;;;;203.03;59.97;;;;;;;;;;5041812;28;20041;-48
2024/01/14 04:41:15;;;;;;;197.32;57.45;;;;;;;;;;5044703;28;20044;-49
2024/01/14 04:43:41;;;;;;;254.38;60.65;;;;;;;;;;5044456;28;20376;-51
2024/01/14 04:46:09;;;;;;;173.37;54.37;;;;;;;;;;5040161;28;20068;-52
2024/01/14 04:48:35;;;;;;;242.27;59.97;;;;;;;;;;5028304;28;20036;-50
2024/01/14 04:51:01;;;;;;;264.30;62.40;;;;;;;;;;5051234;28;20037;-48
2024/01/14 04:53:27;;;;;;;274.25;61.97;;;;;;;;;;5040147;28;20267;-48
2024/01/14 04:55:54;;;;;;;232.70;61.60;;;;;;;;;;5032256;28;20030;-50
2024/01/14 04:58:20;;;;;;;176.75;53.15;;;;;;;;;;5039781;28;20488;-52
2024/01/14 05:00:46;;;;;;;194.43;54.28;;;;;;;;;;5037496;28;20108;-51
2024/01/14 05:03:13;;;;;;;188.40;57.03;;;;;;;;;;5033653;28;20040;-50
2024/01/14 05:05:39;;;;;;;;;;;;;;;;;;5051658;28;20028;-50
2024/01/14 05:08:06;;;;;;;352.35;71.97;;;;;;;;;;5037718;28;19916;-47
2024/01/14 05:10:32;;;;;;;318.90;67.63;;;;;;;;;;5036007;28;20107;-52
2024/01/14 05:12:58;;;;;;;310.03;74.87;;;;;;;;;;5005902;28;20037;-50
2024/01/14 05:15:24;;;;;;;275.40;64.87;;;;;;;;;;5046834;28;20075;-49
2024/01/14 05:17:50;;;;;;;380.88;82.50;;;;;;;;;;5013733;28;20025;-50
2024/01/14 05:20:17;;;;;;;283.23;64.03;;;;;;;;;;5035271;28;20094;-51
2024/01/14 05:22:43;;;;;;;315.90;69.17;;;;;;;;;;5043863;28;20025;-54
2024/01/14 05:25:09;;;;;;;347.42;79.20;;;;;;;;;;5041809;28;20064;-50
2024/01/14 05:27:36;;;;;;;472.85;94.95;;;;;;;;;;5047287;28;20514;-53
2024/01/14 05:30:03;;;;;;;421.13;78.80;;;;;;;;;;5014802;28;20033;-50
2024/01/14 05:32:29;;;;;;;250.40;66.38;;;;;;;;;;5049291;28;20119;-51
2024/01/14 05:34:55;;;;;;;300.67;66.20;;;;;;;;;;5051333;28;20076;-50
2024/01/14 05:37:22;;;;;;;200.33;61.47;;;;;;;;;;5033914;28;20443;-49
2024/01/14 05:39:48;;;;;;;214.98;55.10;;;;;;;;;;5031557;28;20275;-50
2024/01/14 05:42:14;;;;;;;355.77;75.67;;;;;;;;;;5031076;28;20041;-49
2024/01/14 05:44:40;;;;;;;265.90;63.50;;;;;;;;;;5031187;28;20028;-49
2024/01/14 05:47:07;;;;;;;347.60;70.17;;;;;;;;;;5031362;28;20034;-49
2024/01/14 05:49:33;;;;;;;491.58;107.00;;;;;;;;;;5030055;28;20315;-50
2024/01/14 05:51:59;;;;;;;248.10;66.57;;;;;;;;;;5031319;28;20041;-49
2024/01/14 05:54:25;;;;;;;309.67;74.40;;;;;;;;;;5029917;28;20018;-49
2024/01/14 05:56:52;;;;;;;394.40;95.73;;;;;;;;;;5031352;28;20389;-48
2024/01/14 05:59:18;;;;;;;374.95;87.85;;;;;;;;;;5031325;28;20022;-49
2024/01/14 06:01:44;;;;;;;305.48;74.25;;;;;;;;;;5030032;28;20034;-50
2024/01/14 06:04:10;;;;;;;233.73;73.05;;;;;;;;;;5031015;28;20035;-51
2024/01/14 06:06:36;;;;;;;498.17;107.57;;;;;;;;;;5031493;28;20041;-51
2024/01/14 06:09:03;;;;;;;406.97;106.73;;;;;;;;;;5031199;28;20252;-51
2024/01/14 06:11:29;;;;;;;298.90;83.33;;;;;;;;;;5031460;28;20037;-49
2024/01/14 06:13:55;;;;;;;344.55;86.07;;;;;;;;;;5030928;28;20026;-50
2024/01/14 06:16:21;;;;;;;446.07;96.13;;;;;;;;;;5030948;28;20108;-50
2024/01/14 06:18:47;;;;;;;307.05;84.95;;;;;;;;;;5030817;28;20267;-50
2024/01/14 06:21:14;;;;;;;514.20;103.17;;;;;;;;;;5030761;28;20025;-50
2024/01/14 06:23:40;;;;;;;391.27;94.20;;;;;;;;;;5030760;28;20144;-53
2024/01/14 06:26:06;;;;;;;358.70;95.03;;;;;;;;;;5030894;28;20121;-50
2024/01/14 06:28:32;;;;;;;249.07;78.65;;;;;;;;;;5031058;28;20318;-51
2024/01/14 06:30:59;;;;;;;561.07;122.37;;;;;;;;;;5029730;28;20076;-51
2024/01/14 06:33:25;;;;;;;278.67;81.63;;;;;;;;;;5030716;28;20022;-50
2024/01/14 06:35:51;;;;;;;353.08;91.80;;;;;;;;;;5031143;28;20260;-50
2024/01/14 06:38:17;;;;;;;280.70;74.37;;;;;;;;;;5046572;28;20399;-52
2024/01/14 06:40:43;;;;;;;293.67;79.88;;;;;;;;;;5046950;28;20158;-51
2024/01/14 06:43:10;;;;;;;321.20;87.07;;;;;;;;;;5048909;28;20029;-50
2024/01/14 06:45:36;;;;;;;531.57;114.33;;;;;;;;;;5049336;28;20084;-50
2024/01/14 06:48:02;;;;;;;272.30;77.17;;;;;;;;;;5035318;28;20033;-49
2024/01/14 06:50:28;;;;;;;167.32;59.90;;;;;;;;;;5038136;28;20087;-50
2024/01/14 06:52:55;;;;;;;281.27;80.77;;;;;;;;;;5036394;28;20074;-51
2024/01/14 06:55:21;;;;;;;482.53;113.73;;;;;;;;;;5053657;28;20749;-52
2024/01/14 06:57:47;;;;;;;247.77;77.53;;;;;;;;;;5034494;28;20108;-49
2024/01/14 07:00:14;;;;;;;384.67;99.50;;;;;;;;;;5050308;28;20264;-51
2024/01/14 07:02:40;;;;;;;547.20;121.13;;;;;;;;;;5030608;28;20070;-50
2024/01/14 07:05:08;;;;;;;456.90;109.57;;;;;;;;;;5048027;28;20516;-51
2024/01/14 07:07:34;;;;;;;455.85;100.25;;;;;;;;;;5033905;28;20396;-52
2024/01/14 07:10:01;;;;;;;262.30;81.67;;;;;;;;;;5051104;28;20040;-54
2024/01/14 07:12:27;;;;;;;453.52;107.43;;;;;;;;;;5037790;28;20035;-53
2024/01/14 07:14:53;;;;;;;422.38;95.07;;;;;;;;;;5051853;28;20060;-51
2024/01/14 07:17:19;;;;;;;361.13;86.33;;;;;;;;;;5051340;28;20021;-54
2024/01/14 07:19:46;;;;;;;229.03;73.40;;;;;;;;;;5051261;28;20053;-52
2024/01/14 07:22:12;;;;;;;272.03;78.70;;;;;;;;;;5033345;28;20222;-52
2024/01/14 07:24:38;;;;;;;427.20;101.32;;;;;;;;;;5015125;28;20562;-49
2024/01/14 07:27:04;;;;;;;255.55;79.05;;;;;;;;;;5015848;28;20103;-49
2024/01/14 07:29:31;;;;;;;299.60;79.22;;;;;;;;;;5033511;28;20112;-49
2024/01/14 07:31:57;;;;;;;423.50;101.03;;;;;;;;;;5015771;28;20025;-53
2024/01/14 07:34:23;;;;;;;497.33;97.93;;;;;;;;;;5015522;28;20268;-52
2024/01/14 07:36:49;;;;;;;330.83;82.87;;;;;;;;;;5015777;28;20065;-52
2024/01/14 07:39:16;;;;;;;306.63;82.63;;;;;;;;;;5033369;28;20030;-50
2024/01/14 07:41:42;;;;;;;337.55;86.43;;;;;;;;;;5033239;28;20762;-52
2024/01/14 07:44:13;;;;;;;285.02;76.68;;;;;;;;;;5033017;28;20396;-51
2024/01/14 07:46:39;;;;;;;305.88;86.75;;;;;;;;;;5031739;28;20037;-54
2024/01/14 07:49:05;;;;;;;284.42;64.65;;;;;;;;;;5030512;28;20036;-49
2024/01/14 07:51:32;;;;;;;297.70;86.47;;;;;;;;;;5028782;28;20060;-56
2024/01/14 07:53:58;;;;;;;281.67;77.18;;;;;;;;;;5030222;28;20450;-52
2024/01/14 07:56:24;;;;;;;299.53;78.17;;;;;;;;;;5030650;28;20021;-52
2024/01/14 07:58:50;;;;;;;304.77;80.28;;;;;;;;;;5031477;28;20296;-51
2024/01/14 08:01:18;;;;;;;296.43;79.77;;;;;;;;;;5029349;28;20052;-49
2024/01/14 08:03:44;;;;;;;330.85;84.00;;;;;;;;;;5029938;28;20152;-53
2024/01/14 08:06:10;;;;;;;323.07;85.03;;;;;;;;;;5036912;28;20068;-52
2024/01/14 08:08:36;;;;;;;306.93;80.60;;;;;;;;;;5031639;28;20336;-49
2024/01/14 08:11:03;;;;;;;346.27;84.43;;;;;;;;;;5029773;28;20034;-52
2024/01/14 08:13:29;;;;;;;303.65;80.38;;;;;;;;;;5029974;28;20063;-57
2024/01/14 08:15:55;;;;;;;225.27;75.47;;;;;;;;;;5031125;28;20124;-53
2024/01/14 08:18:21;;;;;;;352.57;88.93;;;;;;;;;;5030910;28;20021;-55
2024/01/14 08:20:48;;;;;;;352.48;87.32;;;;;;;;;;5030951;28;20379;-56
2024/01/14 08:23:14;;;;;;;276.08;78.88;;;;;;;;;;5031170;28;20395;-49
2024/01/14 08:25:40;;;;;;;355.67;88.03;;;;;;;;;;5030763;28;20079;-54
2024/01/14 08:28:06;;;;;;;343.13;87.67;;;;;;;;;;5029414;28;20272;-53
2024/01/14 08:30:32;;;;;;;308.70;76.68;;;;;;;;;;5029927;28;20031;-53
2024/01/14 08:33:00;;;;;;;358.35;89.32;;;;;;;;;;5031014;28;20032;-52
2024/01/14 08:35:26;;;;;;;436.38;91.90;;;;;;;;;;5013321;28;20082;-51
2024/01/14 08:37:52;;;;;;;271.90;73.75;;;;;;;;;;5029466;28;20021;-55
2024/01/14 08:40:18;;;;;;;281.27;73.33;;;;;;;;;;5031039;28;20029;-51
2024/01/14 08:42:45;;;;;;;271.73;76.97;;;;;;;;;;5030778;28;20091;-54
2024/01/14 08:45:16;;;;;;;251.65;74.38;;;;;;;;;;5029563;28;20260;-58
2024/01/14 08:47:42;;;;;;;283.65;76.57;;;;;;;;;;5030908;28;20022;-51
2024/01/14 08:50:09;;;;;;;244.73;71.78;;;;;;;;;;5030595;28;20518;-52
2024/01/14 08:52:37;;;;;;;337.77;78.80;;;;;;;;;;5030974;28;20033;-51
2024/01/14 08:55:04;;;;;;;282.80;74.50;;;;;;;;;;5030194;28;20102;-50
2024/01/14 08:57:30;;;;;;;319.92;85.05;;;;;;;;;;5030450;28;20041;-57
2024/01/14 08:59:59;;;;;;;237.13;72.78;;;;;;;;;;5029715;28;20035;-53
2024/01/14 09:02:25;;;;;;;384.50;91.20;;;;;;;;;;5030323;28;20029;-52
2024/01/14 09:04:52;;;;;;;251.43;72.43;;;;;;;;;;5030428;28;20506;-55
2024/01/14 09:07:18;;;;;;;304.48;86.53;;;;;;;;;;5031161;28;20029;-50
2024/01/14 09:09:44;;;;;;;212.25;71.78;;;;;;;;;;5049569;28;20104;-55
2024/01/14 09:12:10;;;;;;;208.70;68.77;;;;;;;;;;5045534;28;20017;-58
2024/01/14 09:14:37;;;;;;;273.60;76.55;;;;;;;;;;5029216;28;20029;-53
2024/01/14 09:17:03;;;;;;;180.40;68.17;;;;;;;;;;5030293;28;20029;-56
2024/01/14 09:19:29;;;;;;;344.80;88.63;;;;;;;;;;5031667;28;20603;-54
2024/01/14 09:21:56;;;;;;;339.73;88.40;;;;;;;;;;5035073;28;20029;-55
2024/01/14 09:24:22;;;;;;;214.85;71.03;;;;;;;;;;5041224;28;20280;-57
2024/01/14 09:26:49;;;;;;;288.20;77.87;;;;;;;;;;5030256;28;20060;-51
2024/01/14 09:29:15;;;;;;;398.35;89.63;;;;;;;;;;5029109;28;20275;-53
2024/01/14 09:31:41;;;;;;;263.40;77.63;;;;;;;;;;5029602;28;20102;-56
2024/01/14 09:34:07;;;;;;;295.70;76.83;;;;;;;;;;5032510;28;20032;-50
2024/01/14 09:36:33;;;;;;;189.60;70.27;;;;;;;;;;5034319;28;20498;-50
2024/01/14 09:39:00;;;;;;;214.10;75.57;;;;;;;;;;5027777;28;20480;-50
2024/01/14 09:41:26;;;;;;;165.23;63.33;;;;;;;;;;5031579;28;20462;-50
2024/01/14 09:43:52;;;;;;;192.40;70.13;;;;;;;;;;5030876;28;20476;-51
2024/01/14 09:46:19;;;;;;;153.20;61.37;;;;;;;;;;5013229;28;20403;-52
2024/01/14 09:48:47;;;;;;;155.05;62.88;;;;;;;;;;5031580;28;20152;-56
2024/01/14 09:51:14;;;;;;;238.88;77.72;;;;;;;;;;5031694;28;20057;-56
2024/01/14 09:53:41;;;;;;;196.07;66.55;;;;;;;;;;5031188;28;20253;-52
2024/01/14 09:56:10;;;;;;;178.25;66.45;;;;;;;;;;5030039;28;20029;-55
2024/01/14 09:58:39;;;;;;;218.00;67.63;;;;;;;;;;5031339;28;20025;-55
2024/01/14 10:01:05;;;;;;;204.63;66.82;;;;;;;;;;5031287;28;20030;-52
2024/01/14 10:03:31;;;;;;;235.32;78.78;;;;;;;;;;5029825;28;20044;-55
2024/01/14 10:05:58;;;;;;;228.05;72.13;;;;;;;;;;5031109;28;20026;-54
2024/01/14 10:08:24;;;;;;;173.40;58.92;;;;;;;;;;5031102;28;20068;-53
2024/01/14 10:10:54;;;;;;;228.50;74.47;;;;;;;;;;5033206;28;20057;-54
2024/01/14 10:13:21;;;;;;;209.88;67.03;;;;;;;;;;5034885;28;20331;-55
2024/01/14 10:15:48;;;;;;;166.95;58.60;;;;;;;;;;5034720;28;20029;-52
2024/01/14 10:18:14;;;;;;;189.15;59.05;;;;;;;;;;5033535;28;20055;-55
2024/01/14 10:20:40;;;;;;;175.23;72.43;;;;;;;;;;5034755;28;20044;-54
2024/01/14 10:23:06;;;;;;;109.88;52.90;;;;;;;;;;5034849;28;20036;-53
2024/01/14 10:25:33;;;;;;;146.75;58.70;;;;;;;;;;5034593;28;20079;-53
2024/01/14 10:28:05;;;;;;;134.23;51.47;;;;;;;;;;5033303;28;20033;-50
2024/01/14 10:30:31;;;;;;;197.30;65.75;;;;;;;;;;5034643;28;20542;-54
2024/01/14 10:32:57;;;;;;;123.47;53.33;;;;;;;;;;5034586;28;20079;-53
2024/01/14 10:35:27;;;;;;;148.23;55.83;;;;;;;;;;5034023;28;20033;-54
2024/01/14 10:37:53;;;;;;;142.65;55.53;;;;;;;;;;5072216;23;20051;-52
2024/01/14 10:40:20;;;;;;;130.60;48.57;;;;;;;;;;5094245;28;20101;-51
2024/01/14 10:42:46;;;;;;;144.30;51.85;;;;;;;;;;5093796;28;20046;-57
2024/01/14 10:45:12;;;;;;;112.17;51.10;;;;;;;;;;5094289;28;20073;-57
2024/01/14 10:47:43;;;;;;;117.03;51.90;;;;;;;;;;5072848;28;20025;-56
2024/01/14 10:50:11;;;;;;;150.48;56.78;;;;;;;;;;5056137;28;20036;-55
2024/01/14 10:52:41;;;;;;;137.57;59.42;;;;;;;;;;5073123;28;20068;-50
2024/01/14 10:55:34;;;;;;;134.93;55.55;;;;;;;;;;5071076;28;20418;-57
2024/01/14 10:58:03;;;;;;;147.95;53.78;;;;;;;;;;5051175;28;20037;-53
2024/01/14 11:00:32;;;;;;;165.57;59.03;;;;;;;;;;5072595;28;20086;-54
2024/01/14 11:03:00;;;;;;;186.13;63.88;;;;;;;;;;5071646;28;20039;-55
2024/01/14 11:05:26;;;;;;;145.82;58.65;;;;;;;;;;5073321;28;20028;-53
2024/01/14 11:07:53;;;;;;;194.38;58.63;;;;;;;;;;5073762;28;20510;-57
2024/01/14 11:10:20;;;;;;;142.95;58.97;;;;;;;;;;5073513;28;20504;-53
2024/01/14 11:12:56;;;;;;;114.22;57.05;;;;;;;;;;5055637;28;20064;-58
2024/01/14 11:15:28;;;;;;;117.43;56.67;;;;;;;;;;5073342;28;20037;-57
2024/01/14 11:17:57;;;;;;;128.82;55.90;;;;;;;;;;5073308;28;20032;-55
2024/01/14 11:20:25;;;;;;;125.13;57.25;;;;;;;;;;5072328;28;20035;-60
2024/01/14 11:22:55;;;;;;;127.18;54.80;;;;;;;;;;5054833;28;20023;-56
2024/01/14 11:25:30;;;;;;;139.68;60.13;;;;;;;;;;5073295;28;20025;-56
2024/01/14 11:27:57;;;;;;;108.15;53.15;;;;;;;;;;5073422;28;20025;-58
2024/01/14 11:30:43;;;;;;;104.25;51.75;;;;;;;;;;5073157;28;20483;-57
2024/01/14 11:33:28;;;;;;;109.15;52.97;;;;;;;;;;5073095;28;20124;-53
2024/01/14 11:35:55;;;;;;;141.30;58.10;;;;;;;;;;5073265;28;20266;-55
2024/01/14 11:38:38;;;;;;;91.75;50.35;;;;;;;;;;5072932;28;20033;-54
2024/01/14 11:41:39;;;;;;;111.88;50.90;;;;;;;;;;5073048;28;20024;-57
2024/01/14 11:44:09;;;;;;;91.32;47.90;;;;;;;;;;4993827;28;20172;-55
2024/01/14 11:46:42;;;;;;;106.57;48.25;;;;;;;;;;5059726;28;20090;-54
2024/01/14 11:49:16;;;;;;;103.53;44.30;;;;;;;;;;5052836;28;20047;-55
2024/01/14 11:51:51;;;;;;;112.07;48.63;;;;;;;;;;5070861;28;20347;-58
2024/01/14 11:54:17;;;;;;;97.13;45.45;;;;;;;;;;5052818;28;20487;-60
2024/01/14 11:56:44;;;;;;;107.20;48.73;;;;;;;;;;5070902;28;20055;-58
2024/01/14 11:59:11;;;;;;;94.63;45.47;;;;;;;;;;5070609;28;20381;-57
2024/01/14 12:01:40;;;;;;;83.00;44.50;;;;;;;;;;5052517;28;20032;-57
2024/01/14 12:04:10;;;;;;;103.28;48.72;;;;;;;;;;5052808;28;20052;-57
2024/01/14 12:06:46;;;;;;;96.40;47.55;;;;;;;;;;5069670;28;20028;-62
2024/01/14 12:09:13;;;;;;;84.35;47.03;;;;;;;;;;5070836;28;20402;-60
2024/01/14 12:11:39;;;;;;;;;;;;;;;;;;5053034;28;20559;-60
2024/01/14 12:14:06;;;;;;;98.65;50.70;;;;;;;;;;5069745;28;19961;-59
2024/01/14 12:16:34;;;;;;;94.50;45.92;;;;;;;;;;5070436;28;20044;-58
2024/01/14 12:19:00;;;;;;;82.22;43.50;;;;;;;;;;5070214;28;20410;-55
2024/01/14 12:21:27;;;;;;;81.20;46.10;;;;;;;;;;5070453;28;20098;-56
2024/01/14 12:23:53;;;;;;;83.78;45.40;;;;;;;;;;5070470;28;20021;-54
2024/01/14 12:26:20;;;;;;;90.82;47.63;;;;;;;;;;5070048;28;20533;-57
2024/01/14 12:28:47;;;;;;;94.18;47.38;;;;;;;;;;5052393;28;20115;-58
2024/01/14 12:31:21;;;;;;;89.25;47.75;;;;;;;;;;5069995;28;20050;-60
2024/01/14 12:33:48;;;;;;;87.78;46.22;;;;;;;;;;5069286;28;20032;-56
2024/01/14 12:36:15;;;;;;;83.60;46.83;;;;;;;;;;5052099;28;20025;-59
2024/01/14 12:38:42;;;;;;;99.13;50.08;;;;;;;;;;5069876;28;20433;-57
2024/01/14 12:41:08;;;;;;;96.30;51.50;;;;;;;;;;5070041;28;20587;-58
2024/01/14 12:43:35;;;;;;;94.68;49.90;;;;;;;;;;5070118;28;20020;-55
2024/01/14 12:46:02;;;;;;;90.63;48.65;;;;;;;;;;5069767;28;20089;-57
2024/01/14 12:48:29;;;;;;;84.95;47.15;;;;;;;;;;5070051;28;20039;-55
2024/01/14 12:50:59;;;;;;;83.90;48.13;;;;;;;;;;5052202;28;20024;-57
2024/01/14 12:53:27;;;;;;;85.00;48.42;;;;;;;;;;5070091;28;20263;-57
2024/01/14 12:56:07;;;;;;;94.70;53.03;;;;;;;;;;5069429;28;20042;-57
2024/01/14 12:58:33;;;;;;;87.60;47.75;;;;;;;;;;5052236;28;20077;-57
2024/01/14 13:00:59;;;;;;;90.00;51.50;;;;;;;;;;5051699;28;20059;-56
2024/01/14 13:03:26;;;;;;;89.68;50.05;;;;;;;;;;5051885;28;20032;-58
2024/01/14 13:05:52;;;;;;;93.05;52.38;;;;;;;;;;5070107;28;20029;-57
2024/01/14 13:08:19;;;;;;;92.60;50.70;;;;;;;;;;5068080;28;20044;-58
2024/01/14 13:10:45;;;;;;;91.68;51.67;;;;;;;;;;5051539;28;20028;-60
2024/01/14 13:13:11;;;;;;;95.13;53.70;;;;;;;;;;5069958;28;20155;-57
2024/01/14 13:15:38;;;;;;;85.93;50.33;;;;;;;;;;5050838;28;20390;-56
2024/01/14 13:18:04;;;;;;;85.60;48.13;;;;;;;;;;5069723;28;20035;-54
2024/01/14 13:20:50;;;;;;;88.13;50.28;;;;;;;;;;5069161;28;20101;-52
2024/01/14 13:23:16;;;;;;;88.68;52.53;;;;;;;;;;5068869;28;20029;-56
2024/01/14 13:25:42;;;;;;;89.28;47.22;;;;;;;;;;5051758;28;20025;-58
2024/01/14 13:28:09;;;;;;;88.03;49.25;;;;;;;;;;5069614;28;20133;-59
2024/01/14 13:30:35;;;;;;;86.32;51.30;;;;;;;;;;5071738;28;20502;-59
2024/01/14 13:33:02;;;;;;;76.20;44.65;;;;;;;;;;5070174;28;20028;-56
2024/01/14 13:35:29;;;;;;;79.85;47.28;;;;;;;;;;5070554;28;20423;-58
2024/01/14 13:37:55;;;;;;;83.85;47.75;;;;;;;;;;5052229;28;20060;-60
2024/01/14 13:40:21;;;;;;;77.70;45.83;;;;;;;;;;5069873;28;20044;-60
2024/01/14 13:42:47;;;;;;;76.30;46.42;;;;;;;;;;5071321;28;20017;-60
2024/01/14 13:45:14;;;;;;;82.25;49.50;;;;;;;;;;5053937;28;20394;-60
2024/01/14 13:47:41;;;;;;;;;;;;;;;;;;5057287;28;20028;-61
2024/01/14 13:50:07;;;;;;;82.40;48.13;;;;;;;;;;5075018;28;19908;-58
2024/01/14 13:52:33;;;;;;;88.68;49.60;;;;;;;;;;5050277;28;20041;-59
2024/01/14 13:55:00;;;;;;;75.70;47.67;;;;;;;;;;5062311;28;20037;-59
2024/01/14 13:57:26;;;;;;;85.80;49.83;;;;;;;;;;5068956;28;20025;-58
2024/01/14 13:59:52;;;;;;;85.82;48.72;;;;;;;;;;5073413;28;20518;-56
2024/01/14 14:02:19;;;;;;;89.03;51.17;;;;;;;;;;5072514;28;20588;-56
2024/01/14 14:04:46;;;;;;;78.47;44.63;;;;;;;;;;5073084;28;20021;-59